Picuris, New Mexico
Current Conditions -  °F | °C
As of 7:35 PM on Saturday 25 Oct 2014 (Local Time) from KSKX Reporting Station
Clear Clear  
Wind Chill: 57°   Ceiling: Unl
Heat Index: 57°   Visibility: 10mi
Dew Point: 19°   Wind: 8mph
Humidity: 23%   Direction: 240°WSW
Pressure: 30.26"   Gusts: NA
Location:  36.1709°N, 105.75°W
Report Text: KSKX 260135Z AUTO 24007KT 10SM CLR 14/M07 A3026 RMK AO1
Loading
Personal Weather Stations






























Interactive Weather Map New forecast layout! Learn more

10-Day Weather Forecast

Advertisements
Track Severe Weather on mobile